Flight Number: EUR3070 Duration: 10:00
Departure: Lisboa / Portela (LPPT) at 07:30 Distance: 4163 Nm
Arrival: Rio de Janeiro (SBGL) at 17:30 Equipment: A340

Weather Information
Lisboa / Portela, Portugal (LPPT) 38-46N 009-08W 123M Feb 24, 2018 - 01:00 AM EST / 2018.02.24 0600 UTC
Wind: from the ENE (060 degrees) at 6 MPH (5 KT):0
Visibility: greater than 7 mile(s):0 Temperature: 41 F (5 C) Dew Point: 28 F (-2 C) Relative Humidity: 60% Pressure (altimeter): 29.65 in. Hg (1004 hPa)
ob: LPPT 240600Z 06005KT CAVOK 05/M02 Q1004 cycle: 6
Sunrise: 07:18 Sunset: 18:21 (UTC)

Galeao, Brazil (SBGL) 22-49S 043-15W 42M Feb 24, 2018 - 01:00 AM EST / 2018.02.24 0600 UTC
Wind: from the ENE (060 degrees) at 2 MPH (2 KT):0
Visibility: greater than 7 mile(s):0
Sky conditions: mostly clear Temperature: 73 F (23 C) Dew Point: 71 F (22 C) Relative Humidity: 94% Pressure (altimeter): 29.94 in. Hg (1014 hPa)
ob: SBGL 240600Z 06002KT 9999 FEW005 23/22 Q1014 cycle: 6
Sunrise: 08:49 Sunset: 21:22 (UTC)

TAF:2018/02/24 06:06 TAF TAF SBGL 240259Z 2406/2512 32005KT 8000 SCT012 BKN020 TX28/2418Z TN23/2509Z PROB40 2406/2412 4000 DZ BR SCT007 BKN012 BECMG 2412/2414 05005KT 9999 BECMG 2416/2418 14010KT SCT025 BECMG 2422/2424 09005KT BECMG 2503/2505 32005KT RMK PHQ

Previous Pireps for this route
Date Aircraft Flight time Fuel used Landing rate On time
2016-04-05A34008.45135994-163Yes
(pireps marked green are flown by you)

Route map